createdAt,value
2019-02-18T00:00:32.049Z,100.00
2019-02-18T00:02:58.361Z,100.00
2019-02-18T00:05:24.669Z,100.00
2019-02-18T00:07:50.983Z,100.00
2019-02-18T00:10:17.294Z,100.00
2019-02-18T00:12:43.615Z,100.00
2019-02-18T00:15:09.916Z,100.00
2019-02-18T00:17:36.229Z,100.00
2019-02-18T00:20:02.541Z,100.00
2019-02-18T00:22:28.857Z,100.00
2019-02-18T00:24:55.169Z,100.00
2019-02-18T00:27:21.477Z,100.00
2019-02-18T00:29:47.784Z,100.00
2019-02-18T00:32:14.121Z,100.00
2019-02-18T00:34:40.433Z,100.00
2019-02-18T00:37:06.740Z,100.00
2019-02-18T00:39:33.050Z,100.00
2019-02-18T00:41:59.361Z,100.00
2019-02-18T00:44:25.667Z,100.00
2019-02-18T00:46:51.979Z,100.00
2019-02-18T00:49:18.291Z,100.00
2019-02-18T00:51:44.606Z,100.00
2019-02-18T00:54:10.913Z,100.00
2019-02-18T00:56:37.224Z,100.00
2019-02-18T00:59:03.533Z,100.00
2019-02-18T01:01:29.847Z,100.00
2019-02-18T01:03:56.152Z,100.00
2019-02-18T01:06:22.466Z,100.00
2019-02-18T01:08:48.777Z,100.00
2019-02-18T01:11:15.084Z,100.00
2019-02-18T01:13:41.396Z,100.00
2019-02-18T01:16:07.709Z,100.00
2019-02-18T01:18:34.012Z,100.00
2019-02-18T01:21:00.319Z,100.00
2019-02-18T01:23:26.646Z,100.00
2019-02-18T01:25:52.955Z,100.00
2019-02-18T01:28:19.269Z,100.00
2019-02-18T01:30:45.573Z,100.00
2019-02-18T01:33:11.882Z,100.00
2019-02-18T01:35:38.192Z,100.00
2019-02-18T01:38:04.509Z,100.00
2019-02-18T01:40:30.821Z,100.00
2019-02-18T01:42:57.125Z,100.00
2019-02-18T01:45:23.432Z,100.00
2019-02-18T01:47:49.739Z,100.00
2019-02-18T01:50:16.049Z,100.00
2019-02-18T01:52:42.361Z,100.00
2019-02-18T01:55:08.670Z,100.00
2019-02-18T01:57:35.024Z,100.00
2019-02-18T02:00:01.318Z,100.00
2019-02-18T02:02:27.625Z,100.00
2019-02-18T02:04:53.931Z,100.00
2019-02-18T02:07:20.248Z,100.00
2019-02-18T02:09:46.553Z,100.00
2019-02-18T02:12:12.865Z,100.00
2019-02-18T02:14:39.176Z,100.00
2019-02-18T02:17:05.478Z,100.00
2019-02-18T02:19:31.784Z,100.00
2019-02-18T02:21:58.093Z,100.00
2019-02-18T02:24:24.398Z,100.00
2019-02-18T02:26:50.705Z,100.00
2019-02-18T02:29:17.015Z,100.00
2019-02-18T02:31:43.314Z,100.00
2019-02-18T02:34:09.622Z,100.00
2019-02-18T02:36:35.925Z,100.00
2019-02-18T02:39:02.254Z,100.00
2019-02-18T02:41:28.562Z,100.00
2019-02-18T02:43:54.876Z,100.00
2019-02-18T02:46:21.186Z,100.00
2019-02-18T02:48:47.492Z,100.00
2019-02-18T02:51:13.796Z,100.00
2019-02-18T02:53:40.111Z,100.00
2019-02-18T02:56:06.416Z,100.00
2019-02-18T02:58:32.730Z,100.00
2019-02-18T03:00:59.033Z,100.00
2019-02-18T03:03:25.347Z,100.00
2019-02-18T03:05:51.665Z,100.00
2019-02-18T03:08:20.617Z,100.00
2019-02-18T03:10:44.265Z,100.00
2019-02-18T03:13:10.577Z,100.00
2019-02-18T03:15:36.895Z,100.00
2019-02-18T03:18:03.205Z,100.00
2019-02-18T03:20:29.508Z,100.00
2019-02-18T03:22:55.815Z,100.00
2019-02-18T03:25:22.124Z,100.00
2019-02-18T03:27:48.428Z,100.00
2019-02-18T03:30:14.738Z,100.00
2019-02-18T03:32:41.068Z,100.00
2019-02-18T03:35:07.354Z,100.00
2019-02-18T03:37:33.671Z,100.00
2019-02-18T03:39:59.979Z,100.00
2019-02-18T03:42:26.288Z,100.00
2019-02-18T03:44:52.591Z,100.00
2019-02-18T03:47:18.902Z,100.00
2019-02-18T03:49:45.222Z,100.00
2019-02-18T03:52:11.525Z,100.00
2019-02-18T03:54:37.839Z,100.00
2019-02-18T03:57:04.141Z,100.00
2019-02-18T03:59:30.454Z,100.00
2019-02-18T04:01:56.767Z,100.00
2019-02-18T04:04:23.073Z,100.00
2019-02-18T04:06:49.378Z,100.00
2019-02-18T04:09:15.686Z,100.00
2019-02-18T04:11:42.000Z,100.00
2019-02-18T04:14:08.307Z,100.00
2019-02-18T04:16:34.616Z,100.00
2019-02-18T04:19:00.936Z,100.00
2019-02-18T04:21:27.246Z,100.00
2019-02-18T04:23:53.553Z,100.00
2019-02-18T04:26:19.864Z,100.00
2019-02-18T04:28:46.170Z,100.00
2019-02-18T04:31:12.482Z,100.00
2019-02-18T04:33:38.783Z,100.00
2019-02-18T04:36:05.093Z,100.00
2019-02-18T04:38:31.403Z,100.00
2019-02-18T04:40:57.714Z,100.00
2019-02-18T04:43:24.030Z,100.00
2019-02-18T04:45:50.335Z,100.00
2019-02-18T04:48:16.646Z,100.00
2019-02-18T04:50:42.949Z,100.00
2019-02-18T04:53:09.272Z,100.00
2019-02-18T04:55:35.592Z,100.00
2019-02-18T04:58:01.893Z,100.00
2019-02-18T05:00:28.197Z,100.00
2019-02-18T05:02:54.539Z,100.00
2019-02-18T05:05:20.823Z,100.00
2019-02-18T05:07:47.134Z,100.00
2019-02-18T05:10:13.446Z,100.00
2019-02-18T05:12:39.747Z,100.00
2019-02-18T05:15:06.080Z,100.00
2019-02-18T05:17:32.427Z,100.00
2019-02-18T05:19:58.738Z,100.00
2019-02-18T05:22:25.050Z,100.00
2019-02-18T05:24:51.363Z,100.00
2019-02-18T05:27:17.672Z,100.00
2019-02-18T05:29:43.986Z,100.00
2019-02-18T05:32:10.294Z,100.00
2019-02-18T05:34:36.606Z,100.00
2019-02-18T05:37:02.916Z,100.00
2019-02-18T05:39:29.220Z,100.00
2019-02-18T05:41:55.538Z,100.00
2019-02-18T05:44:21.833Z,100.00
2019-02-18T05:46:48.142Z,100.00
2019-02-18T05:49:14.450Z,100.00
2019-02-18T05:51:40.757Z,100.00
2019-02-18T05:54:07.059Z,100.00
2019-02-18T05:56:33.373Z,100.00
2019-02-18T05:58:59.680Z,100.00
2019-02-18T06:01:25.987Z,100.00
2019-02-18T06:03:52.298Z,100.00
2019-02-18T06:06:18.601Z,100.00
2019-02-18T06:08:44.939Z,100.00
2019-02-18T06:11:11.253Z,100.00
2019-02-18T06:13:37.553Z,100.00
2019-02-18T06:16:03.862Z,100.00
2019-02-18T06:18:30.232Z,100.00
2019-02-18T06:20:56.594Z,100.00
2019-02-18T06:23:23.011Z,100.00
2019-02-18T06:25:49.317Z,100.00
2019-02-18T06:28:15.625Z,100.00
2019-02-18T06:30:41.923Z,100.00
2019-02-18T06:33:08.237Z,100.00
2019-02-18T06:35:34.570Z,100.00
2019-02-18T06:38:00.888Z,100.00
2019-02-18T06:40:27.192Z,100.00
2019-02-18T06:42:53.501Z,100.00
2019-02-18T06:45:19.882Z,100.00
2019-02-18T06:47:46.188Z,100.00
2019-02-18T06:50:12.493Z,100.00
2019-02-18T06:52:38.823Z,100.00
2019-02-18T06:55:05.127Z,100.00
2019-02-18T06:57:31.440Z,100.00
2019-02-18T06:59:57.749Z,100.00
2019-02-18T07:02:24.056Z,100.00
2019-02-18T07:04:50.365Z,100.00
2019-02-18T07:07:16.677Z,100.00
2019-02-18T07:09:50.817Z,100.00
2019-02-18T07:12:09.294Z,100.00
2019-02-18T07:14:35.605Z,100.00
2019-02-18T07:17:01.911Z,100.00
2019-02-18T07:19:28.229Z,100.00
2019-02-18T07:21:54.537Z,100.00
2019-02-18T07:24:20.847Z,100.00
2019-02-18T07:26:47.152Z,100.00
2019-02-18T07:29:13.488Z,100.00
2019-02-18T07:31:39.813Z,100.00
2019-02-18T07:34:06.121Z,100.00
2019-02-18T07:36:34.896Z,100.00
2019-02-18T07:38:58.740Z,100.00
2019-02-18T07:41:25.058Z,100.00
2019-02-18T07:43:51.365Z,100.00
2019-02-18T07:46:17.966Z,100.00
2019-02-18T07:48:44.274Z,100.00
2019-02-18T07:51:10.604Z,100.00
2019-02-18T07:53:36.909Z,100.00
2019-02-18T07:56:03.220Z,100.00
2019-02-18T07:58:29.527Z,100.00
2019-02-18T08:00:55.841Z,100.00
2019-02-18T08:03:22.152Z,100.00
2019-02-18T08:05:48.462Z,100.00
2019-02-18T08:08:14.780Z,100.00
2019-02-18T08:10:41.087Z,100.00
2019-02-18T08:13:07.419Z,100.00
2019-02-18T08:15:33.729Z,100.00
2019-02-18T08:18:00.036Z,100.00
2019-02-18T08:20:26.344Z,100.00
2019-02-18T08:22:52.652Z,100.00
2019-02-18T08:25:18.959Z,100.00
2019-02-18T08:27:45.271Z,100.00
2019-02-18T08:30:11.593Z,100.00
2019-02-18T08:32:37.886Z,100.00
2019-02-18T08:35:04.193Z,100.00
2019-02-18T08:37:30.509Z,100.00
2019-02-18T08:39:56.812Z,100.00
2019-02-18T08:42:23.124Z,100.00
2019-02-18T08:44:49.446Z,100.00
2019-02-18T08:47:15.768Z,100.00
2019-02-18T08:49:42.084Z,100.00
2019-02-18T08:52:08.389Z,100.00
2019-02-18T08:54:34.709Z,100.00
2019-02-18T08:57:01.008Z,100.00
2019-02-18T08:59:27.325Z,100.00
2019-02-18T09:01:53.643Z,100.00
2019-02-18T09:04:19.959Z,100.00
2019-02-18T09:06:46.270Z,100.00
2019-02-18T09:09:12.608Z,100.00
2019-02-18T09:11:38.927Z,100.00
2019-02-18T09:14:05.236Z,100.00
2019-02-18T09:16:31.545Z,100.00
2019-02-18T09:18:57.853Z,100.00
2019-02-18T09:21:24.223Z,100.00
2019-02-18T09:23:50.536Z,100.00
2019-02-18T09:26:16.857Z,100.00
2019-02-18T09:28:43.164Z,100.00
2019-02-18T09:31:09.476Z,100.00
2019-02-18T09:33:35.791Z,100.00
2019-02-18T09:36:02.178Z,100.00
2019-02-18T09:38:28.501Z,100.00
2019-02-18T09:40:54.843Z,100.00
2019-02-18T09:43:21.148Z,100.00
2019-02-18T09:45:47.469Z,100.00
2019-02-18T09:48:13.788Z,100.00
2019-02-18T09:50:40.096Z,100.00
2019-02-18T09:53:06.423Z,100.00
2019-02-18T09:55:32.725Z,100.00
2019-02-18T09:57:59.038Z,100.00
2019-02-18T10:00:25.349Z,100.00
2019-02-18T10:02:51.660Z,100.00
2019-02-18T10:05:17.972Z,100.00
2019-02-18T10:07:44.282Z,100.00
2019-02-18T10:10:10.590Z,100.00
2019-02-18T10:12:36.913Z,100.00
2019-02-18T10:15:03.236Z,100.00
2019-02-18T10:17:29.552Z,100.00
2019-02-18T10:19:55.915Z,100.00
2019-02-18T10:22:22.230Z,100.00
2019-02-18T10:24:50.961Z,100.00
2019-02-18T10:27:14.856Z,100.00
2019-02-18T10:29:41.163Z,100.00
2019-02-18T10:32:07.469Z,100.00
2019-02-18T10:34:33.782Z,100.00
2019-02-18T10:37:00.104Z,100.00
2019-02-18T10:39:26.413Z,100.00
2019-02-18T10:41:52.728Z,100.00
2019-02-18T10:44:19.073Z,100.00
2019-02-18T10:46:45.384Z,100.00
2019-02-18T10:49:19.375Z,99.37
2019-02-18T10:51:38.031Z,98.35
2019-02-18T10:54:04.342Z,97.82
2019-02-18T10:56:30.638Z,96.95
2019-02-18T10:58:56.954Z,96.13
2019-02-18T11:01:23.267Z,95.88
2019-02-18T11:03:49.573Z,95.41
2019-02-18T11:06:15.886Z,95.58
2019-02-18T11:08:42.193Z,95.08
2019-02-18T11:11:16.658Z,94.22
2019-02-18T11:13:34.813Z,93.70
2019-02-18T11:16:01.138Z,93.35
2019-02-18T11:18:27.450Z,92.96
2019-02-18T11:20:53.756Z,92.50
2019-02-18T11:23:20.072Z,91.89
2019-02-18T11:25:46.377Z,91.70
2019-02-18T11:28:12.685Z,90.83
2019-02-18T11:30:39.296Z,90.31
2019-02-18T11:33:05.348Z,90.07
2019-02-18T11:35:31.653Z,89.33
2019-02-18T11:37:57.965Z,88.71
2019-02-18T11:40:24.274Z,88.17
2019-02-18T11:42:50.603Z,87.88
2019-02-18T11:45:16.911Z,87.12
2019-02-18T11:47:43.221Z,87.19
2019-02-18T11:50:09.535Z,86.67
2019-02-18T11:52:35.841Z,86.13
2019-02-18T11:55:02.154Z,85.51
2019-02-18T11:57:28.466Z,85.54
2019-02-18T11:59:54.781Z,85.18
2019-02-18T12:02:21.163Z,85.27
2019-02-18T12:04:47.472Z,84.18
2019-02-18T12:07:13.781Z,84.15
2019-02-18T12:09:40.089Z,83.80
2019-02-18T12:12:06.405Z,82.96
2019-02-18T12:14:32.722Z,81.99
2019-02-18T12:16:59.033Z,82.15
2019-02-18T12:19:25.362Z,81.76
2019-02-18T12:21:51.675Z,81.09
2019-02-18T12:24:17.973Z,81.06
2019-02-18T12:26:44.284Z,81.44
2019-02-18T12:29:10.592Z,80.88
2019-02-18T12:31:36.903Z,80.77
2019-02-18T12:34:03.214Z,80.65
2019-02-18T12:36:29.521Z,80.37
2019-02-18T12:38:55.837Z,79.74
2019-02-18T12:41:22.187Z,79.44
2019-02-18T12:43:48.461Z,79.32
2019-02-18T12:46:16.094Z,78.56
2019-02-18T12:48:41.077Z,78.28
2019-02-18T12:51:07.400Z,77.98
2019-02-18T12:53:33.702Z,77.73
2019-02-18T12:56:00.008Z,77.13
2019-02-18T12:58:26.321Z,76.89
2019-02-18T13:00:52.660Z,76.65
2019-02-18T13:03:18.979Z,75.97
2019-02-18T13:05:45.267Z,75.64
2019-02-18T13:08:11.577Z,75.64
2019-02-18T13:10:37.886Z,75.28
2019-02-18T13:13:04.192Z,75.21
2019-02-18T13:15:30.495Z,75.27
2019-02-18T13:17:56.804Z,75.29
2019-02-18T13:20:23.113Z,74.69
2019-02-18T13:22:49.425Z,74.51
2019-02-18T13:25:15.735Z,74.63
2019-02-18T13:27:42.039Z,74.19
2019-02-18T13:30:08.349Z,74.04
2019-02-18T13:32:34.660Z,73.65
2019-02-18T13:35:00.984Z,73.37
2019-02-18T13:37:27.299Z,73.15
2019-02-18T13:39:53.621Z,73.00
2019-02-18T13:42:19.932Z,72.66
2019-02-18T13:44:46.240Z,72.27
2019-02-18T13:47:12.557Z,72.03
2019-02-18T13:49:38.862Z,71.66
2019-02-18T13:52:05.178Z,71.07
2019-02-18T13:54:31.483Z,70.87
2019-02-18T13:56:57.793Z,70.66
2019-02-18T13:59:24.105Z,70.53
2019-02-18T14:01:50.430Z,70.09
2019-02-18T14:04:16.730Z,69.94
2019-02-18T14:06:43.035Z,69.85
2019-02-18T14:09:09.363Z,69.71
2019-02-18T14:11:35.669Z,69.91
2019-02-18T14:14:02.588Z,69.81
2019-02-18T14:16:29.245Z,69.96
2019-02-18T14:18:55.749Z,69.53
2019-02-18T14:21:22.029Z,69.42
2019-02-18T14:23:48.347Z,69.29
2019-02-18T14:26:14.652Z,68.98
2019-02-18T14:28:40.965Z,68.87
2019-02-18T14:31:07.285Z,68.48
2019-02-18T14:33:33.613Z,68.67
2019-02-18T14:35:59.921Z,68.54
2019-02-18T14:38:26.233Z,68.35
2019-02-18T14:40:52.538Z,68.22
2019-02-18T14:43:18.865Z,68.19
2019-02-18T14:45:45.186Z,67.69
2019-02-18T14:48:11.504Z,67.27
2019-02-18T14:50:37.874Z,67.01
2019-02-18T14:53:04.185Z,66.35
2019-02-18T14:55:30.508Z,65.89
2019-02-18T14:57:56.817Z,66.23
2019-02-18T15:00:23.139Z,65.75
2019-02-18T15:02:49.450Z,65.56
2019-02-18T15:05:15.765Z,65.03
2019-02-18T15:07:42.080Z,64.84
2019-02-18T15:10:08.390Z,64.99
2019-02-18T15:12:34.701Z,64.34
2019-02-18T15:15:01.089Z,64.31
2019-02-18T15:17:27.402Z,64.03
2019-02-18T15:19:53.714Z,64.06
2019-02-18T15:22:20.030Z,63.95
2019-02-18T15:24:46.336Z,63.86
2019-02-18T15:27:12.660Z,63.74
2019-02-18T15:29:38.975Z,63.68
2019-02-18T15:32:05.288Z,63.27
2019-02-18T15:34:31.600Z,63.63
2019-02-18T15:36:57.917Z,63.31
2019-02-18T15:39:24.233Z,63.14
2019-02-18T15:41:50.541Z,63.00
2019-02-18T15:44:16.860Z,62.96
2019-02-18T15:46:43.168Z,62.85
2019-02-18T15:49:09.477Z,62.82
2019-02-18T15:51:35.784Z,62.83
2019-02-18T15:54:02.095Z,62.42
2019-02-18T15:56:28.407Z,62.59
2019-02-18T15:58:54.713Z,62.24
2019-02-18T16:01:21.036Z,62.24
2019-02-18T16:03:47.347Z,45.45
2019-02-18T16:06:13.666Z,43.07
2019-02-18T16:08:39.974Z,42.39
2019-02-18T16:11:06.283Z,41.92
2019-02-18T16:13:32.595Z,47.01
2019-02-18T16:15:58.914Z,47.94
2019-02-18T16:18:25.230Z,48.88
2019-02-18T16:20:51.549Z,50.02
2019-02-18T16:23:17.855Z,51.47
2019-02-18T16:25:44.173Z,53.10
2019-02-18T16:28:10.515Z,54.68
2019-02-18T16:30:36.805Z,56.15
2019-02-18T16:33:03.128Z,55.30
2019-02-18T16:35:29.431Z,56.12
2019-02-18T16:37:55.740Z,57.66
2019-02-18T16:40:22.047Z,59.34
2019-02-18T16:42:48.355Z,61.03
2019-02-18T16:45:14.661Z,62.51
2019-02-18T16:47:40.973Z,60.50
2019-02-18T16:50:07.283Z,60.68
2019-02-18T16:52:33.589Z,63.33
2019-02-18T16:54:59.910Z,66.00
2019-02-18T16:57:26.213Z,68.59
2019-02-18T16:59:52.677Z,70.68
2019-02-18T17:02:18.984Z,72.42
2019-02-18T17:04:45.301Z,73.73
2019-02-18T17:07:11.611Z,75.13
2019-02-18T17:09:37.920Z,76.19
2019-02-18T17:12:04.229Z,77.14
2019-02-18T17:14:30.537Z,78.00
2019-02-18T17:16:56.850Z,78.66
2019-02-18T17:19:23.157Z,79.28
2019-02-18T17:21:49.497Z,80.00
2019-02-18T17:24:15.840Z,80.43
2019-02-18T17:26:42.111Z,80.83
2019-02-18T17:29:08.424Z,81.33
2019-02-18T17:31:34.730Z,72.86
2019-02-18T17:34:01.047Z,58.21
2019-02-18T17:36:27.352Z,66.32
2019-02-18T17:38:53.661Z,68.41
2019-02-18T17:41:19.971Z,70.55
2019-02-18T17:43:46.309Z,72.08
2019-02-18T17:46:12.617Z,73.53
2019-02-18T17:48:38.987Z,74.69
2019-02-18T17:51:05.333Z,75.67
2019-02-18T17:53:31.638Z,76.63
2019-02-18T17:55:57.946Z,77.37
2019-02-18T17:58:24.264Z,77.94
2019-02-18T18:00:50.569Z,78.58
2019-02-18T18:03:16.875Z,79.24
2019-02-18T18:05:44.613Z,79.64
2019-02-18T18:08:09.509Z,79.89
2019-02-18T18:10:35.816Z,80.29
2019-02-18T18:13:02.123Z,80.81
2019-02-18T18:15:28.434Z,80.94
2019-02-18T18:17:54.734Z,79.25
2019-02-18T18:20:21.043Z,79.61
2019-02-18T18:22:47.352Z,79.88
2019-02-18T18:25:13.664Z,80.39
2019-02-18T18:27:39.996Z,80.84
2019-02-18T18:30:06.307Z,81.43
2019-02-18T18:32:32.611Z,81.92
2019-02-18T18:34:58.919Z,82.32
2019-02-18T18:37:25.235Z,82.87
2019-02-18T18:39:51.556Z,83.35
2019-02-18T18:42:17.858Z,83.78
2019-02-18T18:44:44.174Z,84.19
2019-02-18T18:47:10.475Z,84.53
2019-02-18T18:49:36.874Z,84.81
2019-02-18T18:52:03.176Z,85.12
2019-02-18T18:54:29.480Z,85.31
2019-02-18T18:56:55.791Z,85.62
2019-02-18T18:59:22.102Z,85.83
2019-02-18T19:01:48.407Z,86.16
2019-02-18T19:04:14.710Z,86.36
2019-02-18T19:06:41.022Z,86.31
2019-02-18T19:09:07.329Z,86.33
2019-02-18T19:11:33.660Z,86.38
2019-02-18T19:13:59.972Z,86.45
2019-02-18T19:16:26.276Z,86.36
2019-02-18T19:18:52.584Z,86.60
2019-02-18T19:21:18.903Z,86.71
2019-02-18T19:23:45.235Z,86.93
2019-02-18T19:26:11.544Z,87.28
2019-02-18T19:28:37.853Z,84.58
2019-02-18T19:31:04.169Z,83.72
2019-02-18T19:33:30.475Z,84.49
2019-02-18T19:35:56.785Z,85.18
2019-02-18T19:38:23.103Z,86.04
2019-02-18T19:40:49.397Z,86.77
2019-02-18T19:43:15.702Z,87.32
2019-02-18T19:45:42.328Z,87.17
2019-02-18T19:48:08.634Z,87.77
2019-02-18T19:50:37.937Z,88.11
2019-02-18T19:53:04.243Z,88.79
2019-02-18T19:55:30.547Z,89.29
2019-02-18T19:57:56.856Z,89.76
2019-02-18T20:00:23.167Z,89.99
2019-02-18T20:02:49.474Z,90.45
2019-02-18T20:05:15.780Z,90.70
2019-02-18T20:07:44.049Z,90.95
2019-02-18T20:10:08.400Z,91.12
2019-02-18T20:12:34.743Z,91.46
2019-02-18T20:15:01.057Z,91.64
2019-02-18T20:17:27.368Z,91.82
2019-02-18T20:19:54.040Z,92.11
2019-02-18T20:22:20.396Z,92.38
2019-02-18T20:24:46.703Z,92.56
2019-02-18T20:27:13.011Z,92.71
2019-02-18T20:29:39.316Z,93.07
2019-02-18T20:32:05.618Z,93.19
2019-02-18T20:34:31.934Z,93.42
2019-02-18T20:36:58.239Z,93.66
2019-02-18T20:39:24.545Z,93.80
2019-02-18T20:41:51.551Z,93.87
2019-02-18T20:44:17.184Z,94.01
2019-02-18T20:46:43.482Z,94.31
2019-02-18T20:49:09.826Z,94.43
2019-02-18T20:51:36.128Z,94.51
2019-02-18T20:54:02.431Z,94.71
2019-02-18T20:56:28.737Z,94.85
2019-02-18T20:58:55.045Z,95.13
2019-02-18T21:01:21.352Z,95.06
2019-02-18T21:03:47.662Z,95.27
2019-02-18T21:06:13.978Z,95.33
2019-02-18T21:08:40.279Z,95.55
2019-02-18T21:11:06.583Z,95.60
2019-02-18T21:13:32.897Z,95.65
2019-02-18T21:15:59.204Z,95.87
2019-02-18T21:18:25.516Z,95.70
2019-02-18T21:20:51.840Z,95.59
2019-02-18T21:23:18.141Z,95.74
2019-02-18T21:25:44.438Z,95.87
2019-02-18T21:28:10.739Z,96.01
2019-02-18T21:30:37.052Z,95.98
2019-02-18T21:33:03.358Z,96.07
2019-02-18T21:35:29.665Z,96.20
2019-02-18T21:37:55.975Z,96.43
2019-02-18T21:40:22.282Z,96.49
2019-02-18T21:42:48.582Z,96.57
2019-02-18T21:45:14.921Z,96.45
2019-02-18T21:47:41.227Z,96.65
2019-02-18T21:50:07.541Z,96.57
2019-02-18T21:52:33.866Z,96.65
2019-02-18T21:55:00.326Z,96.73
2019-02-18T21:57:26.500Z,96.77
2019-02-18T21:59:52.821Z,96.73
2019-02-18T22:02:19.126Z,97.04
2019-02-18T22:04:45.431Z,96.94
2019-02-18T22:07:11.740Z,96.87
2019-02-18T22:09:38.062Z,96.94
2019-02-18T22:12:04.363Z,97.00
2019-02-18T22:14:33.629Z,97.07
2019-02-18T22:16:56.996Z,97.21
2019-02-18T22:19:23.308Z,97.32
2019-02-18T22:21:49.653Z,97.56
2019-02-18T22:24:15.958Z,97.57
2019-02-18T22:26:42.263Z,97.67
2019-02-18T22:29:08.647Z,97.78
2019-02-18T22:31:34.967Z,98.10
2019-02-18T22:34:01.287Z,98.24
2019-02-18T22:36:27.596Z,98.31
2019-02-18T22:38:53.908Z,98.15
2019-02-18T22:41:20.219Z,98.26
2019-02-18T22:43:46.608Z,98.21
2019-02-18T22:46:12.919Z,98.51
2019-02-18T22:48:39.231Z,98.54
2019-02-18T22:51:05.540Z,98.68
2019-02-18T22:53:31.848Z,98.76
2019-02-18T22:55:58.157Z,98.97
2019-02-18T22:58:24.525Z,99.17
2019-02-18T23:00:50.830Z,99.16
2019-02-18T23:03:17.139Z,99.29
2019-02-18T23:05:43.456Z,99.25
2019-02-18T23:08:09.785Z,99.39
2019-02-18T23:10:36.095Z,99.28
2019-02-18T23:13:02.397Z,100.00
2019-02-18T23:15:28.708Z,100.00
2019-02-18T23:17:55.013Z,100.00
2019-02-18T23:20:21.327Z,100.00
2019-02-18T23:22:47.637Z,100.00
2019-02-18T23:25:13.947Z,100.00
2019-02-18T23:27:40.259Z,100.00
2019-02-18T23:30:06.576Z,100.00
2019-02-18T23:32:32.883Z,100.00
2019-02-18T23:34:59.191Z,100.00
2019-02-18T23:37:25.500Z,100.00
2019-02-18T23:39:51.807Z,100.00
2019-02-18T23:42:18.111Z,100.00
2019-02-18T23:44:44.419Z,100.00
2019-02-18T23:47:10.726Z,100.00
2019-02-18T23:49:37.034Z,100.00
2019-02-18T23:52:03.342Z,100.00
2019-02-18T23:54:29.653Z,100.00
2019-02-18T23:56:55.968Z,100.00
2019-02-18T23:59:22.282Z,100.00
